createdAt,value
2023-01-06T00:02:10.626Z,101189.13
2023-01-06T00:05:12.361Z,101189.00
2023-01-06T00:08:13.809Z,101185.13
2023-01-06T00:11:15.656Z,101175.78
2023-01-06T00:14:16.971Z,101178.13
2023-01-06T00:17:19.812Z,101171.06
2023-01-06T00:20:21.280Z,101167.47
2023-01-06T00:23:22.798Z,101173.50
2023-01-06T00:26:24.327Z,101170.72
2023-01-06T00:29:25.953Z,101169.03
2023-01-06T00:32:28.760Z,101153.03
2023-01-06T00:35:30.300Z,101168.91
2023-01-06T00:38:32.001Z,101161.66
2023-01-06T00:41:33.611Z,101167.56
2023-01-06T00:44:36.935Z,101159.38
2023-01-06T00:47:39.774Z,101151.69
2023-01-06T00:50:41.245Z,101151.44
2023-01-06T00:53:42.816Z,101151.25
2023-01-06T00:56:45.913Z,101147.38
2023-01-06T00:59:47.484Z,101144.09
2023-01-06T01:02:50.312Z,101145.41
2023-01-06T01:05:51.841Z,101144.09
2023-01-06T01:08:53.921Z,101148.69
2023-01-06T01:11:55.568Z,101145.19
2023-01-06T01:14:57.014Z,101145.91
2023-01-06T01:17:59.817Z,101151.03
2023-01-06T01:21:01.924Z,101145.91
2023-01-06T01:24:03.691Z,101144.22
2023-01-06T01:27:05.482Z,101138.09
2023-01-06T01:30:07.635Z,101141.56
2023-01-06T01:33:10.493Z,101143.97
2023-01-06T01:36:14.856Z,101147.63
2023-01-06T01:39:19.191Z,101151.97
2023-01-06T01:42:21.138Z,101139.88
2023-01-06T01:45:23.524Z,101142.56
2023-01-06T01:48:26.615Z,101132.13
2023-01-06T01:51:30.260Z,101119.72
2023-01-06T01:54:33.258Z,101122.16
2023-01-06T01:57:37.264Z,101117.69
2023-01-06T02:00:39.909Z,101107.63
2023-01-06T02:03:42.740Z,101100.31
2023-01-06T02:06:46.493Z,101099.38
2023-01-06T02:09:56.521Z,101098.63
2023-01-06T02:12:59.273Z,101084.56
2023-01-06T02:16:04.506Z,101078.25
2023-01-06T02:19:18.687Z,101066.84
2023-01-06T02:22:32.325Z,101064.06
2023-01-06T02:26:10.352Z,101069.41
2023-01-06T02:30:02.615Z,101053.25
2023-01-06T02:33:16.885Z,101060.16
2023-01-06T02:36:24.136Z,101051.59
2023-01-06T02:39:32.694Z,101057.63
2023-01-06T02:42:41.978Z,101049.63
2023-01-06T02:45:49.580Z,101041.50
2023-01-06T02:49:01.523Z,101036.16
2023-01-06T02:52:09.937Z,101034.47
2023-01-06T02:55:22.253Z,101026.22
2023-01-06T02:58:27.602Z,101030.00
2023-01-06T03:01:32.988Z,101018.69
2023-01-06T03:04:39.792Z,101025.84
2023-01-06T03:07:42.536Z,101018.81
2023-01-06T03:10:45.064Z,101007.78
2023-01-06T03:13:49.553Z,101008.13
2023-01-06T03:16:52.937Z,101001.13
2023-01-06T03:19:56.050Z,101000.25
2023-01-06T03:22:57.624Z,100993.81
2023-01-06T03:26:00.708Z,100990.31
2023-01-06T03:29:02.582Z,100987.03
2023-01-06T03:32:11.588Z,100991.25
2023-01-06T03:35:22.313Z,100987.72
2023-01-06T03:38:31.218Z,100984.22
2023-01-06T03:41:36.279Z,100981.81
2023-01-06T03:44:42.840Z,100977.91
2023-01-06T03:47:52.511Z,100974.13
2023-01-06T03:51:01.364Z,100967.34
2023-01-06T03:54:08.305Z,100952.56
2023-01-06T03:57:15.905Z,100955.25
2023-01-06T04:00:19.880Z,100946.13
2023-01-06T04:03:28.757Z,100946.00
2023-01-06T04:06:32.141Z,100943.59
2023-01-06T04:09:36.805Z,100954.13
2023-01-06T04:12:39.601Z,100946.13
2023-01-06T04:15:44.226Z,100935.44
2023-01-06T04:18:45.875Z,100933.63
2023-01-06T04:21:49.535Z,100924.78
2023-01-06T04:24:52.389Z,100915.22
2023-01-06T04:27:53.991Z,100920.81
2023-01-06T04:30:57.447Z,100913.75
2023-01-06T04:33:59.117Z,100920.06
2023-01-06T04:37:02.126Z,100910.13
2023-01-06T04:40:04.341Z,100911.81
2023-01-06T04:43:05.880Z,100908.66
2023-01-06T04:46:07.654Z,100896.44
2023-01-06T04:49:09.233Z,100905.50
2023-01-06T04:52:12.038Z,100903.72
2023-01-06T04:55:13.520Z,100905.50
2023-01-06T04:58:14.998Z,100894.97
2023-01-06T05:01:16.555Z,100888.81
2023-01-06T05:04:18.532Z,100886.38
2023-01-06T05:07:21.232Z,100879.34
2023-01-06T05:10:22.815Z,100881.19
2023-01-06T05:13:24.318Z,100880.53
2023-01-06T05:16:28.889Z,100872.41
2023-01-06T05:19:30.372Z,100860.88
2023-01-06T05:22:33.211Z,100861.38
2023-01-06T05:25:34.665Z,100872.06
2023-01-06T05:28:36.350Z,100859.31
2023-01-06T05:31:37.983Z,100849.59
2023-01-06T05:34:39.559Z,100857.59
2023-01-06T05:37:42.376Z,100858.34
2023-01-06T05:40:44.009Z,100844.88
2023-01-06T05:43:45.554Z,100838.41
2023-01-06T05:46:47.020Z,100829.84
2023-01-06T05:49:48.504Z,100824.50
2023-01-06T05:52:59.301Z,100825.47
2023-01-06T05:56:01.864Z,100807.97
2023-01-06T05:59:04.164Z,100808.38
2023-01-06T06:02:05.698Z,100814.09
2023-01-06T06:05:11.284Z,100812.25
2023-01-06T06:08:20.934Z,100809.19
2023-01-06T06:11:22.568Z,100796.50
2023-01-06T06:14:24.755Z,100805.31
2023-01-06T06:17:26.418Z,100795.72
2023-01-06T06:20:28.112Z,100791.38
2023-01-06T06:23:31.029Z,100780.31
2023-01-06T06:26:32.614Z,100772.31
2023-01-06T06:29:34.350Z,100764.88
2023-01-06T06:32:35.922Z,100747.47
2023-01-06T06:35:37.363Z,100738.06
2023-01-06T06:38:40.219Z,100733.38
2023-01-06T06:41:41.715Z,100740.34
2023-01-06T06:44:43.206Z,100740.59
2023-01-06T06:47:44.706Z,100737.94
2023-01-06T06:50:46.189Z,100723.94
2023-01-06T06:53:49.324Z,100708.78
2023-01-06T06:56:54.146Z,100695.22
2023-01-06T06:59:55.663Z,100700.31
2023-01-06T07:02:57.205Z,100682.47
2023-01-06T07:05:59.473Z,100683.44
2023-01-06T07:09:02.784Z,100678.16
2023-01-06T07:12:04.852Z,100676.16
2023-01-06T07:15:07.984Z,100668.94
2023-01-06T07:18:10.210Z,100669.56
2023-01-06T07:21:12.020Z,100654.00
2023-01-06T07:24:19.366Z,100657.59
2023-01-06T07:27:31.128Z,100651.84
2023-01-06T07:30:33.645Z,100653.31
2023-01-06T07:33:35.204Z,100656.47
2023-01-06T07:36:36.741Z,100646.38
2023-01-06T07:39:39.576Z,100652.59
2023-01-06T07:42:41.008Z,100642.88
2023-01-06T07:45:43.051Z,100650.78
2023-01-06T07:48:44.494Z,100635.31
2023-01-06T07:51:46.005Z,100635.72
2023-01-06T07:54:49.378Z,100635.00
2023-01-06T07:57:50.899Z,100634.34
2023-01-06T08:00:55.453Z,100628.56
2023-01-06T08:04:03.696Z,100629.66
2023-01-06T08:07:05.426Z,100626.97
2023-01-06T08:10:10.204Z,100634.84
2023-01-06T08:13:11.830Z,100644.03
2023-01-06T08:16:18.812Z,100643.19
2023-01-06T08:19:24.003Z,100640.81
2023-01-06T08:22:29.393Z,100631.41
2023-01-06T08:25:32.199Z,100631.69
2023-01-06T08:28:41.033Z,100637.31
2023-01-06T08:31:47.566Z,100639.56
2023-01-06T08:34:55.172Z,100635.66
2023-01-06T08:37:56.766Z,100641.44
2023-01-06T08:40:59.657Z,100647.63
2023-01-06T08:44:01.361Z,100639.75
2023-01-06T08:47:04.081Z,100638.19
2023-01-06T08:50:07.669Z,100642.94
2023-01-06T08:53:09.508Z,100642.00
2023-01-06T08:56:13.478Z,100643.84
2023-01-06T08:59:16.490Z,100642.91
2023-01-06T09:05:54.636Z,100639.34
2023-01-06T09:08:59.253Z,100659.28
2023-01-06T09:12:08.863Z,100668.97
2023-01-06T09:15:20.299Z,100657.75
2023-01-06T09:18:21.773Z,100666.19
2023-01-06T09:21:23.544Z,100672.22
2023-01-06T09:24:25.047Z,100685.59
2023-01-06T09:27:30.909Z,100682.91
2023-01-06T09:30:35.822Z,100689.81
2023-01-06T09:33:44.272Z,100693.47
2023-01-06T09:36:45.884Z,100695.41
2023-01-06T09:39:47.340Z,100702.41
2023-01-06T09:42:59.831Z,100717.31
2023-01-06T09:46:05.968Z,100724.03
2023-01-06T09:49:17.197Z,100738.63
2023-01-06T09:52:27.470Z,100754.66
2023-01-06T09:55:37.905Z,100763.50
2023-01-06T09:58:45.568Z,100772.44
2023-01-06T10:01:54.551Z,100768.44
2023-01-06T10:05:18.866Z,100758.31
2023-01-06T10:08:35.571Z,100765.47
2023-01-06T10:11:46.720Z,100775.84
2023-01-06T10:14:55.754Z,100785.13
2023-01-06T10:18:21.771Z,100782.84
2023-01-06T10:21:29.183Z,100791.13
2023-01-06T10:24:35.812Z,100799.00
2023-01-06T10:27:40.018Z,100802.06
2023-01-06T10:30:54.245Z,100804.59
2023-01-06T10:34:03.522Z,100808.97
2023-01-06T10:37:12.719Z,100818.69
2023-01-06T10:40:19.965Z,100818.69
2023-01-06T10:43:23.917Z,100815.03
2023-01-06T10:46:34.444Z,100811.97
2023-01-06T10:49:36.019Z,100816.13
2023-01-06T10:52:38.193Z,100815.34
2023-01-06T10:55:42.245Z,100823.41
2023-01-06T10:58:53.919Z,100821.19
2023-01-06T11:01:57.915Z,100812.78
2023-01-06T11:05:02.089Z,100819.66
2023-01-06T11:08:06.256Z,100808.28
2023-01-06T11:11:27.410Z,100820.13
2023-01-06T11:14:33.429Z,100814.38
2023-01-06T11:17:36.362Z,100817.09
2023-01-06T11:20:38.085Z,100823.75
2023-01-06T11:23:41.513Z,100814.47
2023-01-06T11:26:45.113Z,100809.25
2023-01-06T11:29:46.618Z,100798.13
2023-01-06T11:32:53.134Z,100799.69
2023-01-06T11:35:55.260Z,100792.50
2023-01-06T11:38:59.373Z,100797.44
2023-01-06T11:42:09.348Z,100797.44
2023-01-06T11:45:29.817Z,100800.84
2023-01-06T11:48:34.277Z,100795.94
2023-01-06T11:51:47.664Z,100793.25
2023-01-06T11:54:57.724Z,100804.53
2023-01-06T11:58:04.031Z,100792.69
2023-01-06T12:01:09.161Z,100793.84
2023-01-06T12:04:19.915Z,100793.31
2023-01-06T12:07:27.582Z,100778.66
2023-01-06T12:10:31.323Z,100779.56
2023-01-06T12:13:44.406Z,100770.41
2023-01-06T12:16:58.810Z,100767.03
2023-01-06T12:20:04.043Z,100754.09
2023-01-06T12:23:10.816Z,100739.28
2023-01-06T12:26:18.409Z,100729.47
2023-01-06T12:29:21.074Z,100716.66
2023-01-06T12:32:25.223Z,100705.50
2023-01-06T12:35:32.964Z,100682.56
2023-01-06T12:38:41.478Z,100687.97
2023-01-06T12:41:51.877Z,100688.69
2023-01-06T12:44:57.444Z,100688.53
2023-01-06T12:47:59.252Z,100673.81
2023-01-06T12:51:06.552Z,100644.00
2023-01-06T12:54:14.062Z,100652.47
2023-01-06T12:57:43.358Z,100646.56
2023-01-06T13:00:49.758Z,100642.31
2023-01-06T13:04:07.014Z,100635.25
2023-01-06T13:07:30.142Z,100621.28
2023-01-06T13:10:37.154Z,100638.25
2023-01-06T13:13:51.749Z,100606.50
2023-01-06T13:16:56.659Z,100608.13
2023-01-06T13:20:01.931Z,100601.97
2023-01-06T13:23:18.457Z,100602.22
2023-01-06T13:26:32.474Z,100590.84
2023-01-06T13:29:42.626Z,100601.34
2023-01-06T13:32:56.872Z,100608.78
2023-01-06T13:36:20.587Z,100622.31
2023-01-06T13:39:24.740Z,100608.66
2023-01-06T13:42:33.622Z,100621.31
2023-01-06T13:45:38.087Z,100635.41
2023-01-06T13:48:43.595Z,100644.16
2023-01-06T13:51:45.978Z,100656.22
2023-01-06T13:55:23.966Z,100650.56
2023-01-06T13:58:36.061Z,100648.19
2023-01-06T14:01:44.758Z,100655.66
2023-01-06T14:04:57.087Z,100667.91
2023-01-06T14:08:00.450Z,100660.88
2023-01-06T14:11:24.903Z,100659.50
2023-01-06T14:14:27.671Z,100654.69
2023-01-06T14:17:31.982Z,100654.25
2023-01-06T14:20:35.789Z,100647.94
2023-01-06T14:23:53.115Z,100658.75
2023-01-06T14:26:59.916Z,100670.72
2023-01-06T14:30:04.849Z,100671.00
2023-01-06T14:33:29.320Z,100650.28
2023-01-06T14:36:32.581Z,100656.88
2023-01-06T14:39:34.105Z,100661.78
2023-01-06T14:42:42.331Z,100670.31
2023-01-06T14:45:44.238Z,100662.59
2023-01-06T14:48:56.591Z,100658.28
2023-01-06T14:51:58.863Z,100683.91
2023-01-06T14:55:06.690Z,100707.03
2023-01-06T14:58:29.211Z,100726.25
2023-01-06T15:01:34.817Z,100725.28
2023-01-06T15:04:36.340Z,100735.59
2023-01-06T15:07:37.897Z,100754.81
2023-01-06T15:10:41.651Z,100767.22
2023-01-06T15:13:50.289Z,100785.81
2023-01-06T15:16:52.837Z,100799.50
2023-01-06T15:19:54.394Z,100793.88
2023-01-06T15:22:56.698Z,100815.69
2023-01-06T15:25:58.267Z,100811.47
2023-01-06T15:29:02.760Z,100830.66
2023-01-06T15:32:11.014Z,100833.81
2023-01-06T15:35:19.977Z,100839.41
2023-01-06T15:38:25.046Z,100839.78
2023-01-06T15:41:26.792Z,100848.22
2023-01-06T15:44:38.638Z,100855.91
2023-01-06T15:47:45.604Z,100859.53
2023-01-06T15:50:55.600Z,100867.03
2023-01-06T15:53:58.559Z,100871.41
2023-01-06T15:57:15.326Z,100869.88
2023-01-06T16:00:25.593Z,100880.28
2023-01-06T16:03:30.379Z,100878.84
2023-01-06T16:06:33.664Z,100885.47
2023-01-06T16:09:35.201Z,100887.38
2023-01-06T16:12:36.787Z,100898.47
2023-01-06T16:15:45.314Z,100906.94
2023-01-06T16:18:47.056Z,100917.13
2023-01-06T16:21:51.813Z,100919.06
2023-01-06T16:24:53.721Z,100924.63
2023-01-06T16:27:57.910Z,100920.81
2023-01-06T16:31:08.498Z,100924.09
2023-01-06T16:34:29.317Z,100908.56
2023-01-06T16:37:37.541Z,100912.16
2023-01-06T16:40:44.800Z,100924.72
2023-01-06T16:43:46.570Z,100922.97
2023-01-06T16:46:57.355Z,100933.16
2023-01-06T16:50:00.945Z,100947.00
2023-01-06T16:53:10.360Z,100950.75
2023-01-06T16:56:18.300Z,100954.97
2023-01-06T16:59:24.509Z,100944.28
2023-01-06T17:02:27.346Z,100957.88
2023-01-06T17:05:35.628Z,100977.03
2023-01-06T17:08:38.481Z,100974.44
2023-01-06T17:11:39.923Z,100973.66
2023-01-06T17:14:41.433Z,100980.66
2023-01-06T17:17:46.984Z,100968.88
2023-01-06T17:20:49.196Z,100968.72
2023-01-06T17:23:57.206Z,100969.59
2023-01-06T17:27:00.501Z,100976.94
2023-01-06T17:30:06.474Z,100983.13
2023-01-06T17:33:11.400Z,100987.91
2023-01-06T17:36:21.859Z,100981.94
2023-01-06T17:39:24.565Z,100978.88
2023-01-06T17:42:27.892Z,100989.84
2023-01-06T17:45:36.115Z,100993.47
2023-01-06T17:48:49.468Z,100996.97
2023-01-06T17:51:50.926Z,101005.78
2023-01-06T17:54:54.277Z,101003.44
2023-01-06T17:57:56.685Z,101005.44
2023-01-06T18:01:06.389Z,101004.31
2023-01-06T18:04:12.556Z,101004.31
2023-01-06T18:07:14.121Z,101012.50
2023-01-06T18:10:21.329Z,101023.72
2023-01-06T18:13:24.091Z,101022.44
2023-01-06T18:16:31.380Z,101020.75
2023-01-06T18:19:36.266Z,101018.91
2023-01-06T18:22:37.883Z,101015.22
2023-01-06T18:25:39.349Z,101027.09
2023-01-06T18:28:40.832Z,101015.44
2023-01-06T18:31:42.924Z,101017.88
2023-01-06T18:34:52.077Z,101021.38
2023-01-06T18:37:54.009Z,101017.47
2023-01-06T18:40:58.562Z,101017.78
2023-01-06T18:44:02.898Z,101021.94
2023-01-06T18:47:15.223Z,101015.03
2023-01-06T18:50:27.087Z,101017.47
2023-01-06T18:53:29.598Z,101009.19
2023-01-06T18:56:31.338Z,101013.53
2023-01-06T18:59:32.793Z,101016.28
2023-01-06T19:02:45.163Z,101015.97
2023-01-06T19:05:48.053Z,101018.63
2023-01-06T19:08:52.630Z,101021.09
2023-01-06T19:11:58.429Z,101022.16
2023-01-06T19:15:01.397Z,101015.47
2023-01-06T19:18:02.932Z,101016.72
2023-01-06T19:21:12.793Z,101020.13
2023-01-06T19:24:33.638Z,101014.19
2023-01-06T19:27:42.444Z,101031.09
2023-01-06T19:30:45.001Z,101028.94
2023-01-06T19:33:50.172Z,101021.72
2023-01-06T19:36:53.635Z,101026.31
2023-01-06T19:39:58.047Z,101034.34
2023-01-06T19:43:06.744Z,101048.38
2023-01-06T19:46:16.534Z,101041.69
2023-01-06T19:49:19.501Z,101042.41
2023-01-06T19:52:38.200Z,101052.38
2023-01-06T19:55:44.104Z,101048.09
2023-01-06T19:58:50.932Z,101056.34
2023-01-06T20:01:59.182Z,101054.28
2023-01-06T20:05:03.994Z,101051.56
2023-01-06T20:08:11.101Z,101045.09
2023-01-06T20:11:12.712Z,101050.44
2023-01-06T20:14:14.149Z,101038.63
2023-01-06T20:17:19.007Z,101045.91
2023-01-06T20:20:20.507Z,101045.06
2023-01-06T20:23:23.335Z,101042.09
2023-01-06T20:26:25.047Z,101054.75
2023-01-06T20:29:26.489Z,101057.81
2023-01-06T20:32:27.985Z,101062.38
2023-01-06T20:35:32.998Z,101059.88
2023-01-06T20:38:41.707Z,101060.31
2023-01-06T20:41:43.213Z,101068.50
2023-01-06T20:44:44.943Z,101079.44
2023-01-06T20:47:47.429Z,101080.66
2023-01-06T20:50:48.913Z,101071.69
2023-01-06T20:53:55.668Z,101078.28
2023-01-06T20:56:57.287Z,101071.38
2023-01-06T20:59:58.756Z,101069.69
2023-01-06T21:03:00.308Z,101071.59
2023-01-06T21:06:01.817Z,101080.59
2023-01-06T21:09:08.364Z,101078.94
2023-01-06T21:12:09.811Z,101081.88
2023-01-06T21:15:12.387Z,101083.47
2023-01-06T21:18:13.866Z,101082.84
2023-01-06T21:21:15.436Z,101087.03
2023-01-06T21:24:18.640Z,101083.63
2023-01-06T21:27:20.330Z,101091.28
2023-01-06T21:30:21.770Z,101086.59
2023-01-06T21:33:23.265Z,101089.16
2023-01-06T21:36:24.703Z,101088.09
2023-01-06T21:39:31.021Z,101092.34
2023-01-06T21:42:32.480Z,101090.03
2023-01-06T21:45:34.077Z,101088.63
2023-01-06T21:48:35.779Z,101090.72
2023-01-06T21:51:37.300Z,101092.94
2023-01-06T21:54:43.465Z,101091.13
2023-01-06T21:57:45.075Z,101092.28
2023-01-06T22:00:46.634Z,101092.81
2023-01-06T22:03:48.132Z,101095.69
2023-01-06T22:06:49.664Z,101085.91
2023-01-06T22:09:56.274Z,101092.19
2023-01-06T22:13:02.349Z,101097.25
2023-01-06T22:16:04.062Z,101097.56
2023-01-06T22:19:05.694Z,101102.75
2023-01-06T22:22:07.480Z,101093.72
2023-01-06T22:25:10.458Z,101108.28
2023-01-06T22:28:15.676Z,101102.38
2023-01-06T22:31:17.244Z,101108.19
2023-01-06T22:34:18.974Z,101102.13
2023-01-06T22:37:20.433Z,101095.28
2023-01-06T22:40:26.416Z,101095.53
2023-01-06T22:43:27.923Z,101101.41
2023-01-06T22:46:29.471Z,101099.47
2023-01-06T22:49:30.990Z,101087.72
2023-01-06T22:52:32.630Z,101092.56
2023-01-06T22:55:35.571Z,101095.63
2023-01-06T22:58:40.966Z,101084.59
2023-01-06T23:01:42.663Z,101068.75
2023-01-06T23:04:44.169Z,101075.28
2023-01-06T23:07:45.793Z,101071.91
2023-01-06T23:10:48.602Z,101068.09
2023-01-06T23:13:55.895Z,101065.34
2023-01-06T23:16:57.392Z,101075.53
2023-01-06T23:19:59.065Z,101072.88
2023-01-06T23:23:00.623Z,101070.94
2023-01-06T23:26:04.053Z,101071.19
2023-01-06T23:29:10.022Z,101069.00
2023-01-06T23:32:11.583Z,101066.06
2023-01-06T23:35:13.124Z,101070.13
2023-01-06T23:38:14.597Z,101051.94
2023-01-06T23:41:18.871Z,101049.03
2023-01-06T23:44:23.883Z,101051.81
2023-01-06T23:47:25.365Z,101043.91
2023-01-06T23:50:26.943Z,101056.19
2023-01-06T23:53:29.552Z,101053.75
2023-01-06T23:56:40.549Z,101050.09
2023-01-06T23:59:45.399Z,101050.72
